Time;durP1;ratioP1;P1;durP2;ratioP2;P2;SDS_P1;SDS_P2;PMS_P1;PMS_P2;Temp;Humidity;BMP_temperature;BMP_pressure;BME280_temperature;BME280_humidity;BME280_pressure;Samples;Min_cycle;Max_cycle;Signal;HPM_P1;HPM_P2
2021/12/15 00:01:38;;;;;;;;;;;5.50;99.90;;;;;;5065938;28;19952;-71
2021/12/15 00:04:05;;;;;;;;;;;5.50;99.90;;;;;;5063029;28;19928;-71
2021/12/15 00:06:32;;;;;;;;;;;5.50;99.90;;;;;;5065628;28;20224;-70
2021/12/15 00:09:00;;;;;;;;;;;5.50;99.90;;;;;;5064372;28;19965;-72
2021/12/15 00:11:35;;;;;;;;;;;5.50;99.90;;;;;;5065412;28;19992;-71
2021/12/15 00:14:02;;;;;;;;;;;5.50;99.90;;;;;;5064582;28;19935;-70
2021/12/15 00:16:29;;;;;;;;;;;5.50;99.90;;;;;;5065697;28;19927;-71
2021/12/15 00:18:56;;;;;;;;;;;5.50;99.90;;;;;;5064983;28;19921;-71
2021/12/15 00:21:22;;;;;;;;;;;5.50;99.90;;;;;;5065555;28;19963;-71
2021/12/15 00:23:49;;;;;;;;;;;5.50;99.90;;;;;;5064668;28;19955;-72
2021/12/15 00:26:16;;;;;;;;;;;5.60;99.90;;;;;;5065566;28;20162;-71
2021/12/15 00:28:44;;;;;;;;;;;5.50;99.90;;;;;;5065519;28;19920;-71
2021/12/15 00:31:12;;;;;;;;;;;5.60;99.90;;;;;;5064807;28;19955;-71
2021/12/15 00:33:40;;;;;;;;;;;5.60;99.90;;;;;;5064434;28;19921;-71
2021/12/15 00:36:07;;;;;;;;;;;5.50;99.90;;;;;;5064913;28;19952;-70
2021/12/15 00:38:34;;;;;;;;;;;5.50;99.90;;;;;;5061966;28;20252;-71
2021/12/15 00:41:01;;;;;;;;;;;5.50;99.90;;;;;;5064977;28;19984;-71
2021/12/15 00:43:28;;;;;;;;;;;5.50;99.90;;;;;;5064634;28;19987;-71
2021/12/15 00:45:56;;;;;;;;;;;5.50;99.90;;;;;;5064592;28;19928;-70
2021/12/15 00:48:23;;;;;;;;;;;5.50;99.90;;;;;;5062054;28;20097;-71
2021/12/15 00:50:50;;;;;;;;;;;5.50;99.90;;;;;;5064030;28;20094;-71
2021/12/15 00:53:16;;;;;;;;;;;5.50;99.90;;;;;;5052544;28;19928;-71
2021/12/15 00:55:44;;;;;;;;;;;5.50;99.90;;;;;;5043469;28;20153;-71
2021/12/15 00:58:11;;;;;;;;;;;5.50;99.90;;;;;;5044053;28;19921;-71
2021/12/15 01:00:49;;;;;;;;;;;5.50;99.90;;;;;;5042614;28;19947;-70
2021/12/15 01:03:17;;;;;;;;;;;5.60;99.90;;;;;;5056226;28;19921;-70
2021/12/15 01:05:46;;;;;;;;;;;5.50;99.90;;;;;;5060862;28;20111;-71
2021/12/15 01:08:15;;;;;;;;;;;5.50;99.90;;;;;;5063830;28;20023;-71
2021/12/15 01:10:56;;;;;;;;;;;5.50;99.90;;;;;;5064395;28;19928;-71
2021/12/15 01:21:39;;;;;;;;;;;5.40;99.90;;;;;;5064305;28;20254;-71
2021/12/15 01:24:06;;;;;;;;;;;5.40;99.90;;;;;;5063804;28;19921;-71
2021/12/15 01:26:33;;;;;;;;;;;5.40;99.90;;;;;;5064709;28;19971;-71
2021/12/15 01:28:59;;;;;;;;;;;5.50;99.90;;;;;;5063847;28;19952;-71
2021/12/15 01:31:26;;;;;;;;;;;5.50;99.90;;;;;;5064789;28;19928;-71
2021/12/15 01:33:54;;;;;;;;;;;5.40;99.90;;;;;;5063767;28;19955;-71
2021/12/15 01:36:21;;;;;;;;;;;5.50;99.90;;;;;;5063941;28;19952;-71
2021/12/15 01:38:48;;;;;;;;;;;5.50;99.90;;;;;;5062963;28;19921;-71
2021/12/15 01:41:22;;;;;;;;;;;5.50;99.90;;;;;;5063837;28;19928;-71
2021/12/15 01:46:52;;;;;;;;;;;5.40;99.90;;;;;;5063592;28;19932;-71
2021/12/15 01:46:55;;;;;;;;;;;5.40;99.90;;;;;;5062062;28;19925;-71
2021/12/15 01:49:25;;;;;;;;;;;5.50;99.90;;;;;;5063424;28;19955;-71
2021/12/15 01:51:52;;;;;;;;;;;5.50;99.90;;;;;;5064835;28;19920;-70
2021/12/15 01:54:20;;;;;;;;;;;5.50;99.90;;;;;;5044831;28;19921;-71
2021/12/15 01:56:47;;;;;;;;;;;5.50;99.90;;;;;;5044414;28;19921;-71
2021/12/15 01:59:15;;;;;;;;;;;5.50;99.90;;;;;;5042716;28;19959;-71
2021/12/15 02:01:42;;;;;;;;;;;5.50;99.90;;;;;;5043517;28;19921;-71
2021/12/15 02:04:08;;;;;;;;;;;5.50;99.90;;;;;;5076201;23;19949;-72
2021/12/15 02:06:38;;;;;;;;;;;5.60;99.90;;;;;;5052514;28;19963;-72
2021/12/15 02:09:05;;;;;;;;;;;5.50;99.90;;;;;;5047083;28;19921;-71
2021/12/15 02:11:32;;;;;;;;;;;5.40;99.90;;;;;;5046887;28;19924;-72
2021/12/15 02:13:59;;;;;;;;;;;5.40;99.90;;;;;;5043567;28;20258;-72
2021/12/15 02:16:25;;;;;;;;;;;5.40;99.90;;;;;;5047282;28;20239;-72
2021/12/15 02:18:52;;;;;;;;;;;5.40;99.90;;;;;;5056430;28;20108;-72
2021/12/15 02:21:21;;;;;;;;;;;5.40;99.90;;;;;;5066943;28;19921;-71
2021/12/15 02:23:53;;;;;;;;;;;5.40;99.90;;;;;;5046516;28;19929;-72
2021/12/15 02:26:22;;;;;;;;;;;5.40;99.90;;;;;;5046984;28;19926;-71
2021/12/15 02:28:50;;;;;;;;;;;5.30;99.90;;;;;;5046891;28;19921;-71
2021/12/15 02:31:24;;;;;;;;;;;5.40;99.90;;;;;;5046160;28;19929;-71
2021/12/15 02:34:02;;;;;;;;;;;5.30;99.90;;;;;;5046139;28;19959;-71
2021/12/15 02:39:15;;;;;;;;;;;5.30;99.90;;;;;;5066862;28;19958;-71
2021/12/15 02:41:42;;;;;;;;;;;5.40;99.90;;;;;;5065928;28;19987;-72
2021/12/15 02:44:10;;;;;;;;;;;5.30;99.90;;;;;;5066006;28;20216;-72
2021/12/15 02:46:37;;;;;;;;;;;5.30;99.90;;;;;;5066475;28;19955;-71
2021/12/15 02:49:05;;;;;;;;;;;5.30;99.90;;;;;;5066472;28;19992;-71
2021/12/15 02:51:33;;;;;;;;;;;5.30;99.90;;;;;;5066027;28;19955;-72
2021/12/15 02:54:01;;;;;;;;;;;5.30;99.90;;;;;;5065864;28;19995;-71
2021/12/15 02:56:28;;;;;;;;;;;5.30;99.90;;;;;;5066426;28;20230;-72
2021/12/15 02:58:59;;;;;;;;;;;5.30;99.90;;;;;;5066635;28;19920;-71
2021/12/15 03:01:35;;;;;;;;;;;5.30;99.90;;;;;;5066044;28;20219;-72
2021/12/15 03:04:14;;;;;;;;;;;5.30;99.90;;;;;;5065300;28;19929;-71
2021/12/15 03:06:51;;;;;;;;;;;5.30;99.90;;;;;;5046543;28;19930;-71
2021/12/15 03:17:26;;;;;;;;;;;5.40;99.90;;;;;;5065991;28;19924;-71
2021/12/15 03:19:53;;;;;;;;;;;5.40;99.90;;;;;;5065021;28;19956;-70
2021/12/15 03:22:21;;;;;;;;;;;5.40;99.90;;;;;;5066136;28;19956;-71
2021/12/15 03:24:48;;;;;;;;;;;5.30;99.90;;;;;;5065079;28;19920;-71
2021/12/15 03:27:19;;;;;;;;;;;5.30;99.90;;;;;;5065883;28;19967;-71
2021/12/15 03:35:22;;;;;;;;;;;5.40;99.90;;;;;;5059463;28;19989;-71
2021/12/15 03:37:53;;;;;;;;;;;5.30;99.90;;;;;;5065545;28;19991;-72
2021/12/15 03:40:22;;;;;;;;;;;5.40;99.90;;;;;;5065089;28;19956;-70
2021/12/15 03:42:51;;;;;;;;;;;5.30;99.90;;;;;;5065128;28;19956;-72
2021/12/15 03:45:19;;;;;;;;;;;5.30;99.90;;;;;;5064099;28;20223;-70
2021/12/15 03:47:48;;;;;;;;;;;5.30;99.90;;;;;;5065484;28;19921;-71
2021/12/15 03:50:16;;;;;;;;;;;5.30;99.90;;;;;;5065051;28;20085;-71
2021/12/15 03:52:43;;;;;;;;;;;5.40;99.90;;;;;;5065079;28;19963;-71
2021/12/15 03:55:11;;;;;;;;;;;5.40;99.90;;;;;;5064045;28;19988;-71
2021/12/15 03:57:38;;;;;;;;;;;5.40;99.90;;;;;;5065332;28;19920;-70
2021/12/15 04:00:06;;;;;;;;;;;5.30;99.90;;;;;;5065412;28;20175;-69
2021/12/15 04:02:33;;;;;;;;;;;5.40;99.90;;;;;;5064892;28;19928;-70
2021/12/15 04:04:59;;;;;;;;;;;5.30;99.90;;;;;;5064137;28;19927;-70
2021/12/15 04:07:26;;;;;;;;;;;5.30;99.90;;;;;;5065376;28;19921;-70
2021/12/15 04:09:53;;;;;;;;;;;5.40;99.90;;;;;;5065351;28;19921;-71
2021/12/15 04:12:22;;;;;;;;;;;5.40;99.90;;;;;;5065115;28;19921;-71
2021/12/15 04:14:56;;;;;;;;;;;5.40;99.90;;;;;;5064227;28;19928;-71
2021/12/15 04:17:31;;;;;;;;;;;5.40;99.90;;;;;;5064463;28;19960;-71
2021/12/15 04:19:59;;;;;;;;;;;5.40;99.90;;;;;;5065201;28;19963;-71
2021/12/15 04:22:26;;;;;;;;;;;5.40;99.90;;;;;;5064916;28;19956;-71
2021/12/15 04:24:53;;;;;;;;;;;5.30;99.90;;;;;;5064064;28;19952;-70
2021/12/15 04:27:21;;;;;;;;;;;5.40;99.90;;;;;;5063448;28;20112;-71
2021/12/15 04:29:49;;;;;;;;;;;5.40;99.90;;;;;;5044367;28;19927;-70
2021/12/15 04:32:19;;;;;;;;;;;5.40;99.90;;;;;;5043448;28;19921;-71
2021/12/15 04:34:46;;;;;;;;;;;5.40;99.90;;;;;;5042705;28;19921;-71
2021/12/15 04:37:12;;;;;;;;;;;5.30;99.90;;;;;;5044404;28;19921;-71
2021/12/15 04:39:39;;;;;;;;;;;5.40;99.90;;;;;;5044469;28;20235;-70
2021/12/15 04:42:07;;;;;;;;;;;5.30;99.90;;;;;;5044751;28;19953;-71
2021/12/15 04:44:35;;;;;;;;;;;5.30;99.90;;;;;;5045453;28;19921;-75
2021/12/15 04:47:07;;;;;;;;;;;5.30;99.90;;;;;;5064542;28;19967;-71
2021/12/15 04:49:36;;;;;;;;;;;5.40;99.90;;;;;;5064305;28;19920;-71
2021/12/15 04:52:04;;;;;;;;;;;5.40;99.90;;;;;;5064526;28;19928;-71
2021/12/15 04:54:31;;;;;;;;;;;5.40;99.90;;;;;;5063622;28;19928;-71
2021/12/15 04:56:59;;;;;;;;;;;5.40;99.90;;;;;;5063704;28;19980;-71
2021/12/15 04:59:26;;;;;;;;;;;5.40;99.90;;;;;;5064035;28;20128;-69
2021/12/15 05:01:52;;;;;;;;;;;5.40;99.90;;;;;;5064175;28;19927;-70
2021/12/15 05:04:21;;;;;;;;;;;5.40;99.90;;;;;;5063282;28;19928;-71
2021/12/15 05:06:48;;;;;;;;;;;5.30;99.90;;;;;;5043990;28;19943;-70
2021/12/15 05:09:15;;;;;;;;;;;5.30;99.90;;;;;;5044170;28;19921;-72
2021/12/15 05:11:42;;;;;;;;;;;5.30;99.90;;;;;;5044255;28;19952;-72
2021/12/15 05:14:09;;;;;;;;;;;5.30;99.90;;;;;;5043227;28;19972;-71
2021/12/15 05:16:36;;;;;;;;;;;5.30;99.90;;;;;;5052161;28;20227;-70
2021/12/15 05:19:02;;;;;;;;;;;5.40;99.90;;;;;;5063867;28;20132;-70
2021/12/15 05:21:31;;;;;;;;;;;5.30;99.90;;;;;;5063975;28;19920;-71
2021/12/15 05:24:02;;;;;;;;;;;5.30;99.90;;;;;;5063191;28;19974;-70
2021/12/15 05:26:30;;;;;;;;;;;5.40;99.90;;;;;;5063515;28;20212;-70
2021/12/15 05:28:57;;;;;;;;;;;5.30;99.90;;;;;;5052644;28;20180;-71
2021/12/15 05:31:23;;;;;;;;;;;5.30;99.90;;;;;;5042980;28;20164;-71
2021/12/15 05:33:50;;;;;;;;;;;5.30;99.90;;;;;;5042582;28;19979;-71
2021/12/15 05:36:17;;;;;;;;;;;5.30;99.90;;;;;;5059273;28;19921;-70
2021/12/15 05:38:45;;;;;;;;;;;5.30;99.90;;;;;;5062999;28;20433;-71
2021/12/15 05:41:11;;;;;;;;;;;5.30;99.90;;;;;;5063188;28;20120;-70
2021/12/15 05:43:38;;;;;;;;;;;5.30;99.90;;;;;;5062878;28;20181;-71
2021/12/15 05:46:05;;;;;;;;;;;5.30;99.90;;;;;;5055541;28;20177;-70
2021/12/15 05:48:32;;;;;;;;;;;5.30;99.90;;;;;;5043500;28;19984;-70
2021/12/15 05:50:58;;;;;;;;;;;5.30;99.90;;;;;;5043317;28;19971;-70
2021/12/15 05:53:25;;;;;;;;;;;5.30;99.90;;;;;;5043422;28;19971;-70
2021/12/15 05:55:53;;;;;;;;;;;5.30;99.90;;;;;;5042733;28;19956;-71
2021/12/15 05:58:20;;;;;;;;;;;5.30;99.90;;;;;;5043520;28;19921;-71
2021/12/15 06:00:47;;;;;;;;;;;5.30;99.90;;;;;;5049146;28;19956;-72
2021/12/15 06:03:14;;;;;;;;;;;5.30;99.90;;;;;;5063079;28;19967;-71
2021/12/15 06:05:41;;;;;;;;;;;5.30;99.90;;;;;;5061959;28;19959;-72
2021/12/15 06:08:08;;;;;;;;;;;5.30;99.90;;;;;;5063468;28;19963;-72
2021/12/15 06:10:35;;;;;;;;;;;5.30;99.90;;;;;;5063392;28;20009;-72
2021/12/15 06:13:06;;;;;;;;;;;5.30;99.90;;;;;;5063540;28;19925;-74
2021/12/15 06:15:32;;;;;;;;;;;5.30;99.90;;;;;;5062471;28;20151;-72
2021/12/15 06:18:01;;;;;;;;;;;5.30;99.90;;;;;;5062196;28;19921;-72
2021/12/15 06:20:29;;;;;;;;;;;5.30;99.90;;;;;;5063254;28;19932;-72
2021/12/15 06:22:58;;;;;;;;;;;5.30;99.90;;;;;;5062994;28;19921;-72
2021/12/15 06:25:25;;;;;;;;;;;5.30;99.90;;;;;;5060492;28;20133;-72
2021/12/15 06:27:52;;;;;;;;;;;5.30;99.90;;;;;;5062571;28;20231;-72
2021/12/15 06:30:20;;;;;;;;;;;5.30;99.90;;;;;;5061490;28;19980;-72
2021/12/15 06:32:47;;;;;;;;;;;5.30;99.90;;;;;;5059483;28;19921;-70
2021/12/15 06:35:13;;;;;;;;;;;5.30;99.90;;;;;;5059479;28;19928;-74
2021/12/15 06:37:40;;;;;;;;;;;5.30;99.90;;;;;;5042855;28;20255;-71
2021/12/15 06:40:08;;;;;;;;;;;5.30;99.90;;;;;;5042481;28;19921;-71
2021/12/15 06:42:36;;;;;;;;;;;5.40;99.90;;;;;;5041884;28;19988;-72
2021/12/15 06:45:03;;;;;;;;;;;5.40;99.90;;;;;;5047482;28;20171;-72
2021/12/15 06:58:34;;;;;;;;;;;5.30;99.90;;;;;;5062050;28;19923;-72
2021/12/15 07:01:04;;;;;;;;;;;5.40;99.90;;;;;;5065038;28;20334;-72
2021/12/15 07:03:32;;;;;;;;;;;5.30;99.90;;;;;;5066241;28;19921;-71
2021/12/15 07:05:59;;;;;;;;;;;5.30;99.90;;;;;;5061071;28;19952;-72
2021/12/15 07:08:26;;;;;;;;;;;5.40;99.90;;;;;;5066433;28;19983;-72
2021/12/15 07:10:53;;;;;;;;;;;5.40;99.90;;;;;;5066448;28;19921;-71
2021/12/15 07:13:21;;;;;;;;;;;5.40;99.90;;;;;;5066118;28;20224;-72
2021/12/15 07:15:58;;;;;;;;;;;5.40;99.90;;;;;;5053788;28;19925;-72
2021/12/15 07:18:36;;;;;;;;;;;5.30;99.90;;;;;;5066237;28;19984;-72
2021/12/15 07:21:07;;;;;;;;;;;5.30;99.90;;;;;;5053115;28;19921;-72
2021/12/15 07:23:34;;;;;;;;;;;5.40;99.90;;;;;;5045565;28;19928;-72
2021/12/15 07:26:01;;;;;;;;;;;5.40;99.90;;;;;;5045606;28;19964;-72
2021/12/15 07:28:27;;;;;;;;;;;5.40;99.90;;;;;;5046046;28;19952;-70
2021/12/15 07:30:54;;;;;;;;;;;5.30;99.90;;;;;;5056261;28;19920;-71
2021/12/15 07:33:21;;;;;;;;;;;5.30;99.90;;;;;;5065978;28;19952;-71
2021/12/15 07:35:48;;;;;;;;;;;5.30;99.90;;;;;;5065130;28;19921;-69
2021/12/15 07:38:16;;;;;;;;;;;5.30;99.90;;;;;;5065883;28;20027;-71
2021/12/15 07:40:42;;;;;;;;;;;5.30;99.90;;;;;;5065398;28;19956;-71
2021/12/15 07:43:13;;;;;;;;;;;5.30;99.90;;;;;;5064134;28;19960;-73
2021/12/15 07:45:41;;;;;;;;;;;5.30;99.90;;;;;;5065156;28;19954;-71
2021/12/15 07:48:09;;;;;;;;;;;5.30;99.90;;;;;;5065697;28;19932;-70
2021/12/15 07:50:36;;;;;;;;;;;5.40;99.90;;;;;;5065337;28;20251;-71
2021/12/15 07:53:04;;;;;;;;;;;5.40;99.90;;;;;;5065539;28;19967;-71
2021/12/15 07:55:32;;;;;;;;;;;5.30;99.90;;;;;;5064963;28;19927;-71
2021/12/15 07:57:59;;;;;;;;;;;5.30;99.90;;;;;;5065354;28;19984;-71
2021/12/15 08:00:32;;;;;;;;;;;5.40;99.90;;;;;;5062897;28;19984;-71
2021/12/15 08:02:58;;;;;;;;;;;5.40;99.90;;;;;;5065242;28;19928;-71
2021/12/15 08:05:26;;;;;;;;;;;5.40;99.90;;;;;;5118183;22;19921;-72
2021/12/15 08:07:52;;;;;;;;;;;5.40;99.90;;;;;;5045118;28;19928;-72
2021/12/15 08:10:19;;;;;;;;;;;5.40;99.90;;;;;;5045164;28;19921;-72
2021/12/15 08:12:48;;;;;;;;;;;5.50;99.90;;;;;;5045286;28;19963;-72
2021/12/15 08:15:16;;;;;;;;;;;5.50;99.90;;;;;;5044499;28;19964;-72
2021/12/15 08:17:43;;;;;;;;;;;5.50;99.90;;;;;;5052882;28;19952;-72
2021/12/15 08:20:12;;;;;;;;;;;5.50;99.90;;;;;;5063642;28;19959;-72
2021/12/15 08:22:40;;;;;;;;;;;5.50;99.90;;;;;;5064284;28;20089;-70
2021/12/15 08:25:08;;;;;;;;;;;5.50;99.90;;;;;;5064324;28;19983;-69
2021/12/15 08:27:35;;;;;;;;;;;5.40;99.90;;;;;;5063002;28;19955;-69
2021/12/15 08:30:07;;;;;;;;;;;5.40;99.90;;;;;;5044610;28;20161;-69
2021/12/15 08:32:34;;;;;;;;;;;5.40;99.90;;;;;;5045214;28;19921;-71
2021/12/15 08:35:00;;;;;;;;;;;5.50;99.90;;;;;;5044125;28;19971;-71
2021/12/15 08:37:27;;;;;;;;;;;5.50;99.90;;;;;;5044550;28;19921;-72
2021/12/15 08:39:54;;;;;;;;;;;5.50;99.90;;;;;;5046820;28;19921;-69
2021/12/15 08:42:20;;;;;;;;;;;5.50;99.90;;;;;;5064770;28;19956;-69
2021/12/15 08:44:47;;;;;;;;;;;5.60;99.90;;;;;;5063970;28;19956;-70
2021/12/15 08:47:15;;;;;;;;;;;5.60;99.90;;;;;;5064302;28;19921;-69
2021/12/15 08:49:42;;;;;;;;;;;5.60;99.90;;;;;;5064092;28;19921;-69
2021/12/15 08:52:09;;;;;;;;;;;5.60;99.90;;;;;;5055221;28;19959;-70
2021/12/15 08:54:35;;;;;;;;;;;5.60;99.90;;;;;;5043728;28;19928;-69
2021/12/15 08:57:02;;;;;;;;;;;5.70;99.90;;;;;;5047623;28;19968;-69
2021/12/15 08:59:29;;;;;;;;;;;5.70;99.90;;;;;;5064469;28;19921;-69
2021/12/15 09:01:56;;;;;;;;;;;5.70;99.90;;;;;;5064377;28;19952;-70
2021/12/15 09:04:24;;;;;;;;;;;5.80;99.90;;;;;;5063518;28;19933;-69
2021/12/15 09:06:51;;;;;;;;;;;5.80;99.90;;;;;;5058487;28;19956;-69
2021/12/15 09:09:20;;;;;;;;;;;5.80;99.90;;;;;;5043976;28;19936;-69
2021/12/15 09:11:47;;;;;;;;;;;5.90;99.90;;;;;;5045265;28;20422;-69
2021/12/15 09:14:15;;;;;;;;;;;5.90;99.90;;;;;;5063552;28;19956;-69
2021/12/15 09:16:43;;;;;;;;;;;5.90;99.90;;;;;;5062778;28;20180;-70
2021/12/15 09:19:10;;;;;;;;;;;5.90;99.90;;;;;;5059124;28;19959;-69
2021/12/15 09:21:38;;;;;;;;;;;5.90;99.90;;;;;;5063854;28;19928;-69
2021/12/15 09:24:05;;;;;;;;;;;5.90;99.90;;;;;;5063319;28;19928;-68
2021/12/15 09:26:33;;;;;;;;;;;6.00;99.90;;;;;;5063581;28;19956;-70
2021/12/15 09:29:00;;;;;;;;;;;6.00;99.90;;;;;;5061118;28;19963;-70
2021/12/15 09:31:27;;;;;;;;;;;6.00;99.90;;;;;;5063532;28;20181;-69
2021/12/15 09:33:55;;;;;;;;;;;6.00;99.90;;;;;;5058680;28;19921;-69
2021/12/15 09:36:22;;;;;;;;;;;6.00;99.90;;;;;;5043208;28;19921;-69
2021/12/15 09:38:53;;;;;;;;;;;6.00;99.90;;;;;;5046029;28;19968;-69
2021/12/15 09:41:21;;;;;;;;;;;6.00;99.90;;;;;;5043611;28;19921;-69
2021/12/15 09:43:50;;;;;;;;;;;6.00;99.90;;;;;;5048650;28;20413;-70
2021/12/15 09:46:28;;;;;;;;;;;6.00;99.90;;;;;;5063510;28;19944;-70
2021/12/15 09:57:25;;;;;;;;;;;6.10;99.90;;;;;;5042786;28;19958;-70
2021/12/15 10:02:48;;;;;;;;;;;6.10;99.90;;;;;;5023786;28;19917;-69
2021/12/15 10:05:29;;;;;;;;;;;6.10;99.90;;;;;;5062289;28;20239;-70
2021/12/15 10:10:47;;;;;;;;;;;6.20;99.90;;;;;;5063341;28;19924;-69
2021/12/15 10:18:49;;;;;;;;;;;6.30;99.90;;;;;;5058256;28;19948;-69
2021/12/15 10:21:21;;;;;;;;;;;6.20;99.90;;;;;;5063398;28;19931;-71
2021/12/15 10:23:50;;;;;;;;;;;6.20;99.90;;;;;;5062727;28;19995;-69
2021/12/15 10:26:16;;;;;;;;;;;6.30;99.90;;;;;;5062886;28;19935;-70
2021/12/15 10:28:49;;;;;;;;;;;6.30;99.90;;;;;;5061975;28;20224;-70
2021/12/15 10:31:16;;;;;;;;;;;6.30;99.90;;;;;;5051236;28;20014;-70
2021/12/15 10:33:46;;;;;;;;;;;6.30;99.90;;;;;;5046668;28;19957;-69
2021/12/15 10:36:14;;;;;;;;;;;6.30;99.90;;;;;;5046435;28;19928;-69
2021/12/15 10:38:43;;;;;;;;;;;6.30;99.90;;;;;;5062149;28;19963;-69
2021/12/15 10:41:11;;;;;;;;;;;6.30;99.90;;;;;;5067019;28;20208;-69
2021/12/15 10:43:40;;;;;;;;;;;6.40;99.90;;;;;;5066278;28;19928;-69
2021/12/15 10:46:09;;;;;;;;;;;6.40;99.90;;;;;;5065989;28;19952;-69
2021/12/15 10:48:43;;;;;;;;;;;6.40;99.90;;;;;;5059297;28;19921;-69
2021/12/15 10:51:21;;;;;;;;;;;6.40;99.90;;;;;;5064332;28;19952;-69
2021/12/15 10:53:48;;;;;;;;;;;6.50;99.90;;;;;;5066090;28;19936;-70
2021/12/15 10:56:16;;;;;;;;;;;6.40;99.90;;;;;;5066458;28;19921;-70
2021/12/15 10:58:44;;;;;;;;;;;6.40;99.90;;;;;;5064813;28;20188;-69
2021/12/15 11:01:38;;;;;;;;;;;6.40;99.90;;;;;;5063458;28;19961;-70
2021/12/15 11:04:19;;;;;;;;;;;6.40;99.90;;;;;;5029875;28;20231;-69
2021/12/15 11:06:46;;;;;;;;;;;6.40;99.90;;;;;;5065661;28;19979;-69
2021/12/15 11:09:15;;;;;;;;;;;6.30;99.90;;;;;;5065964;28;19928;-69
2021/12/15 11:11:55;;;;;;;;;;;6.30;99.90;;;;;;5061153;28;20280;-70
2021/12/15 11:14:29;;;;;;;;;;;6.30;99.90;;;;;;5065495;28;19955;-69
2021/12/15 11:17:06;;;;;;;;;;;6.30;99.90;;;;;;5065188;28;19996;-69
2021/12/15 11:19:42;;;;;;;;;;;6.30;99.90;;;;;;5065464;28;19920;-70
2021/12/15 11:22:27;;;;;;;;;;;6.30;99.90;;;;;;5054696;28;20252;-69
2021/12/15 11:24:54;;;;;;;;;;;6.20;99.90;;;;;;5045575;28;19961;-69
2021/12/15 11:27:21;;;;;;;;;;;6.30;99.90;;;;;;5045857;28;19928;-69
2021/12/15 11:29:48;;;;;;;;;;;6.20;99.90;;;;;;5042934;28;19963;-70
2021/12/15 11:32:29;;;;;;;;;;;6.20;99.90;;;;;;5055729;28;20112;-69
2021/12/15 11:35:04;;;;;;;;;;;6.20;99.90;;;;;;5059326;28;19944;-69
2021/12/15 11:37:42;;;;;;;;;;;6.30;99.90;;;;;;5065841;28;20105;-70
2021/12/15 11:40:10;;;;;;;;;;;6.40;99.90;;;;;;5064282;28;19927;-69
2021/12/15 11:42:37;;;;;;;;;;;6.40;99.90;;;;;;5065302;28;19991;-69
2021/12/15 11:45:05;;;;;;;;;;;6.40;99.90;;;;;;5064798;28;19928;-69
2021/12/15 11:47:33;;;;;;;;;;;6.40;99.90;;;;;;5065281;28;19920;-69
2021/12/15 11:50:07;;;;;;;;;;;6.30;99.90;;;;;;5063806;28;19921;-70
2021/12/15 11:52:38;;;;;;;;;;;6.30;99.90;;;;;;5065926;28;19929;-69
2021/12/15 11:55:07;;;;;;;;;;;6.30;99.90;;;;;;5064687;28;20229;-68
2021/12/15 11:57:34;;;;;;;;;;;6.20;99.90;;;;;;5065582;28;19921;-68
2021/12/15 12:00:05;;;;;;;;;;;6.20;99.90;;;;;;5065361;28;20204;-68
2021/12/15 12:02:33;;;;;;;;;;;6.20;99.90;;;;;;5065618;28;20133;-69
2021/12/15 12:05:01;;;;;;;;;;;6.20;99.90;;;;;;5064345;28;19921;-69
2021/12/15 12:07:31;;;;;;;;;;;6.20;99.90;;;;;;5054841;28;19964;-69
2021/12/15 12:10:00;;;;;;;;;;;6.20;99.90;;;;;;5042650;28;20223;-69
2021/12/15 12:12:32;;;;;;;;;;;6.20;99.90;;;;;;5045268;28;19928;-69
2021/12/15 12:14:59;;;;;;;;;;;6.20;99.90;;;;;;5044631;28;19921;-68
2021/12/15 12:17:27;;;;;;;;;;;6.20;99.90;;;;;;5044986;28;20173;-71
2021/12/15 12:19:56;;;;;;;;;;;6.30;99.90;;;;;;5053056;28;19928;-70
2021/12/15 12:22:24;;;;;;;;;;;6.30;99.90;;;;;;5063938;28;19921;-71
2021/12/15 12:24:54;;;;;;;;;;;6.30;99.90;;;;;;5062961;28;19928;-70
2021/12/15 12:27:22;;;;;;;;;;;6.30;99.90;;;;;;5064749;28;20155;-70
2021/12/15 12:29:48;;;;;;;;;;;6.30;99.90;;;;;;5064241;28;19991;-70
2021/12/15 12:32:15;;;;;;;;;;;6.40;99.90;;;;;;5062496;28;19988;-69
2021/12/15 12:34:42;;;;;;;;;;;6.40;99.90;;;;;;5064237;28;19928;-69
2021/12/15 12:37:11;;;;;;;;;;;6.30;99.90;;;;;;5056677;28;19921;-69
2021/12/15 12:39:38;;;;;;;;;;;6.30;99.90;;;;;;5044523;28;19925;-68
2021/12/15 12:42:07;;;;;;;;;;;6.30;99.90;;;;;;5044778;28;19921;-67
2021/12/15 12:44:36;;;;;;;;;;;6.30;99.90;;;;;;5044139;28;19956;-67
2021/12/15 12:47:08;;;;;;;;;;;6.30;99.90;;;;;;5044591;28;19927;-67
2021/12/15 12:50:01;;;;;;;;;;;6.30;99.90;;;;;;5051141;28;19966;-67
2021/12/15 12:59:23;;;;;;;;;;;6.30;99.90;;;;;;5064237;28;20235;-67
2021/12/15 13:00:55;;;;;;;;;;;6.40;99.90;;;;;;5064025;28;19952;-67
2021/12/15 13:03:30;;;;;;;;;;;6.40;99.90;;;;;;5045406;28;20270;-67
2021/12/15 13:05:58;;;;;;;;;;;6.40;99.90;;;;;;5063867;28;19959;-67
2021/12/15 13:08:32;;;;;;;;;;;6.40;99.90;;;;;;5062827;28;20208;-67
2021/12/15 13:11:01;;;;;;;;;;;6.40;99.90;;;;;;5063335;28;20147;-67
2021/12/15 13:13:30;;;;;;;;;;;6.40;99.90;;;;;;5058340;28;19979;-67
2021/12/15 13:15:58;;;;;;;;;;;6.40;99.90;;;;;;5063422;28;19921;-68
2021/12/15 13:18:25;;;;;;;;;;;6.40;99.90;;;;;;5062485;28;19955;-67
2021/12/15 13:20:57;;;;;;;;;;;6.40;99.90;;;;;;5063676;28;19921;-68
2021/12/15 13:23:40;;;;;;;;;;;6.40;99.90;;;;;;5061569;28;20226;-65
2021/12/15 13:28:54;;;;;;;;;;;6.50;99.90;;;;;;5063414;28;20006;-67
2021/12/15 13:31:22;;;;;;;;;;;6.50;99.90;;;;;;5063744;28;19944;-67
2021/12/15 13:33:50;;;;;;;;;;;6.50;99.90;;;;;;5047911;28;19921;-67
2021/12/15 13:36:18;;;;;;;;;;;6.50;99.90;;;;;;5043239;28;19928;-67
2021/12/15 13:38:47;;;;;;;;;;;6.50;99.90;;;;;;5043739;28;19929;-66
2021/12/15 13:41:26;;;;;;;;;;;6.50;99.90;;;;;;5051512;28;20234;-67
2021/12/15 13:44:03;;;;;;;;;;;6.50;99.90;;;;;;5063214;28;19984;-67
2021/12/15 13:46:33;;;;;;;;;;;6.40;99.90;;;;;;5063727;28;19988;-67
2021/12/15 13:49:06;;;;;;;;;;;6.40;99.90;;;;;;5059502;28;19921;-67
2021/12/15 13:51:51;;;;;;;;;;;6.40;99.90;;;;;;5063044;28;19921;-67
2021/12/15 13:54:21;;;;;;;;;;;6.40;99.90;;;;;;5059586;28;19921;-66
2021/12/15 13:56:48;;;;;;;;;;;6.40;99.90;;;;;;5062537;28;19925;-67
2021/12/15 13:59:28;;;;;;;;;;;6.40;99.90;;;;;;5063469;28;19927;-67
2021/12/15 14:02:09;;;;;;;;;;;6.40;99.90;;;;;;5063730;28;19927;-67
2021/12/15 14:04:42;;;;;;;;;;;6.40;99.90;;;;;;5062507;28;19921;-66
2021/12/15 14:07:27;;;;;;;;;;;6.50;99.90;;;;;;5063427;28;19920;-67
2021/12/15 14:09:54;;;;;;;;;;;6.50;99.90;;;;;;5062170;28;19925;-67
2021/12/15 14:12:36;;;;;;;;;;;6.50;99.90;;;;;;5062788;28;19921;-67
2021/12/15 14:15:04;;;;;;;;;;;6.50;99.90;;;;;;5061244;28;20104;-67
2021/12/15 14:17:31;;;;;;;;;;;6.50;99.90;;;;;;5062858;28;20116;-67
2021/12/15 14:19:58;;;;;;;;;;;6.50;99.90;;;;;;5063314;28;19920;-66
2021/12/15 14:22:24;;;;;;;;;;;6.50;99.90;;;;;;5060562;28;19921;-67
2021/12/15 14:24:54;;;;;;;;;;;6.50;99.90;;;;;;5062275;28;19927;-67
2021/12/15 14:27:21;;;;;;;;;;;6.40;99.90;;;;;;5063003;28;19920;-67
2021/12/15 14:29:48;;;;;;;;;;;6.50;99.90;;;;;;5062945;28;19928;-67
2021/12/15 14:32:16;;;;;;;;;;;6.40;99.90;;;;;;5061300;28;19924;-66
2021/12/15 14:34:43;;;;;;;;;;;6.40;99.90;;;;;;5061793;28;19920;-66
2021/12/15 14:37:10;;;;;;;;;;;6.40;99.90;;;;;;5062534;28;19921;-67
2021/12/15 14:39:38;;;;;;;;;;;6.40;99.90;;;;;;5062753;28;19952;-66
2021/12/15 14:42:07;;;;;;;;;;;6.40;99.90;;;;;;5062735;28;19921;-66
2021/12/15 14:44:36;;;;;;;;;;;6.40;99.90;;;;;;5062096;28;19945;-68
2021/12/15 14:47:04;;;;;;;;;;;6.40;99.90;;;;;;5061757;28;19921;-65
2021/12/15 14:49:33;;;;;;;;;;;6.40;99.90;;;;;;5062530;28;19920;-66
2021/12/15 14:52:01;;;;;;;;;;;6.40;99.90;;;;;;5062955;28;19921;-66
2021/12/15 14:54:29;;;;;;;;;;;6.40;99.90;;;;;;5061053;28;19929;-67
2021/12/15 14:56:57;;;;;;;;;;;6.30;99.90;;;;;;5059917;28;19936;-66
2021/12/15 14:59:27;;;;;;;;;;;6.40;99.90;;;;;;5062389;28;19987;-67
2021/12/15 15:01:55;;;;;;;;;;;6.40;99.90;;;;;;5062946;28;19928;-66
2021/12/15 15:04:25;;;;;;;;;;;6.40;99.90;;;;;;5062117;28;19924;-67
2021/12/15 15:06:55;;;;;;;;;;;6.40;99.90;;;;;;5062320;28;19980;-67
2021/12/15 15:09:23;;;;;;;;;;;6.40;99.90;;;;;;5062547;28;19927;-67
2021/12/15 15:11:55;;;;;;;;;;;6.40;99.90;;;;;;5062546;28;20209;-68
2021/12/15 15:14:29;;;;;;;;;;;6.40;99.90;;;;;;5061796;28;19921;-67
2021/12/15 15:16:57;;;;;;;;;;;6.40;99.90;;;;;;5065990;28;20116;-67
2021/12/15 15:19:24;;;;;;;;;;;6.40;99.90;;;;;;5065975;28;19920;-67
2021/12/15 15:21:52;;;;;;;;;;;6.30;99.90;;;;;;5066295;28;19996;-67
2021/12/15 15:24:31;;;;;;;;;;;6.30;99.90;;;;;;5062094;28;19988;-67
2021/12/15 15:26:59;;;;;;;;;;;6.30;99.90;;;;;;5065856;28;19980;-68
2021/12/15 15:29:34;;;;;;;;;;;6.30;99.90;;;;;;5065545;28;20207;-67
2021/12/15 15:32:06;;;;;;;;;;;6.30;99.90;;;;;;5061816;28;19921;-66
2021/12/15 15:34:33;;;;;;;;;;;6.30;99.90;;;;;;5064282;28;19929;-66
2021/12/15 15:37:00;;;;;;;;;;;6.30;99.90;;;;;;5063855;28;20200;-71
2021/12/15 15:39:26;;;;;;;;;;;6.20;99.90;;;;;;5062143;28;19927;-71
2021/12/15 15:41:54;;;;;;;;;;;6.20;99.90;;;;;;5064878;28;19921;-64
2021/12/15 15:44:22;;;;;;;;;;;6.20;99.90;;;;;;5064682;28;19921;-67
2021/12/15 15:46:52;;;;;;;;;;;6.20;99.90;;;;;;5065440;28;20212;-71